Terminal Aerodrome Forecast
Issued by NWS

Home | Current Version | Previous Version | Text Only | Print | Product List | Glossary Off
Versions: 1 2 3 4 5 6 7 8 9 10 11 12 13 14 15 16 17 18 19 20 21 22 23 24 25 26 27 28 29 30 31 32 33

000
FTUS43 KLOT 140800 AAA
TAFDPA
TAF AMD
KDPA 140809Z 1408/1506 VRB03KT 6SM BR SCT040
      TEMPO 1409/1411 4SM BR
     FM141100 VRB02KT 4SM BR FEW040
     FM141300 22007KT P6SM SCT040 SCT250=

USA.gov is the U.S. government's official web portal to all federal, state and local government web resources and services.